ASXG EDDN-EDDN

Flight info

Callsign ASXG
Flight time 0h 4m
Altitude 2000
Route LOCAL
Aircraft C172/L-SDE3G1/S

Departure

Time 2026-05-05 15:42
Airport Nuremberg Airport (EDDN)

Arrival

Time 2026-05-05 15:47
Airport Nuremberg Airport (EDDN)
Time Latitude Longitude Altitude Speed Heading
2026-05-05 15:42 49.48746 11.03100 1844 ft 102 kts 194°
2026-05-05 15:42 49.48041 11.03012 1968 ft 104 kts 166°
2026-05-05 15:43 49.47485 11.03690 2069 ft 105 kts 123°
2026-05-05 15:43 49.47286 11.04801 2097 ft 112 kts 96°
2026-05-05 15:43 49.47217 11.05993 2159 ft 115 kts 97°
2026-05-05 15:43 49.47274 11.07297 2049 ft 130 kts 71°
2026-05-05 15:44 49.47399 11.08673 2039 ft 129 kts 90°
2026-05-05 15:44 49.47436 11.10030 1989 ft 133 kts 99°
2026-05-05 15:44 49.47307 11.11430 1883 ft 134 kts 94°
2026-05-05 15:44 49.47408 11.12826 1921 ft 129 kts 76°
2026-05-05 15:45 49.47927 11.13935 1864 ft 131 kts 26°
2026-05-05 15:45 49.48794 11.14167 1941 ft 123 kts 355°
2026-05-05 15:45 49.49506 11.13663 1930 ft 117 kts 300°
2026-05-05 15:45 49.49688 11.12443 1744 ft 120 kts 267°
2026-05-05 15:46 49.49689 11.11426 1571 ft 77 kts 261°
2026-05-05 15:46 49.49636 11.10622 1413 ft 77 kts 261°
2026-05-05 15:46 49.49711 11.09854 1191 ft 68 kts 259°
2026-05-05 15:46 49.49747 11.09137 1064 ft 66 kts 262°
2026-05-05 15:47 49.49804 11.08523 1036 ft 45 kts 265°
2026-05-05 15:47 49.49845 11.08179 1053 ft 54 kts 260°
2026-05-05 15:47 49.49908 11.07304 1092 ft 71 kts 265°
2026-05-05 15:47 49.50019 11.06530 1210 ft 68 kts 264°
2026-05-05 15:48 49.50421 11.05958 1351 ft 113 kts 333°
2026-05-05 15:48 49.51309 11.06023 1385 ft 128 kts 353°
2026-05-05 15:48 49.52190 11.06106 1557 ft 126 kts
2026-05-05 15:48 49.52917 11.06906 1718 ft 133 kts 62°
2026-05-05 15:49 49.53137 11.08218 1937 ft 128 kts 89°
2026-05-05 15:49 49.53211 11.09610 2077 ft 127 kts 83°
2026-05-05 15:49 49.53379 11.10959 2149 ft 130 kts 77°
2026-05-05 15:49 49.53665 11.12228 2263 ft 127 kts 58°
2026-05-05 15:50 49.53821 11.13433 2416 ft 116 kts 130°
2026-05-05 15:50 49.53133 11.13746 2384 ft 111 kts 206°
2026-05-05 15:50 49.52373 11.13191 2176 ft 126 kts 208°
2026-05-05 15:50 49.51591 11.12628 2109 ft 128 kts 211°
2026-05-05 15:51 49.50857 11.12001 2016 ft 128 kts 216°
2026-05-05 15:51 49.50095 11.11330 1871 ft 128 kts 210°
2026-05-05 15:51 49.49323 11.11800 2023 ft 128 kts 124°
2026-05-05 15:51 49.49445 11.13087 2038 ft 134 kts 48°
2026-05-05 15:52 49.50234 11.13428 2133 ft 111 kts 318°
2026-05-05 15:52 49.50222 11.12429 2002 ft 117 kts 228°
2026-05-05 15:52 49.49724 11.11383 1746 ft 119 kts 245°
2026-05-05 15:52 49.49641 11.10272 1433 ft 92 kts 269°
2026-05-05 15:53 49.49720 11.09422 1132 ft 72 kts 262°
2026-05-05 15:53 49.49783 11.08755 1029 ft 51 kts 257°
2026-05-05 15:53 49.49808 11.08362 1025 ft 25 kts 270°
2026-05-05 15:53 49.49826 11.08114 1024 ft 20 kts 284°
2026-05-05 15:54 49.49853 11.07860 1029 ft 31 kts 280°
2026-05-05 15:54 49.49850 11.07644 1026 ft 10 kts 194°
2026-05-05 15:54 49.49785 11.07677 1027 ft 8 kts 114°
2026-05-05 15:54 49.49698 11.07731 1027 ft 19 kts 154°
2026-05-05 15:55 49.49653 11.07796 1024 ft 0 kts 208°